OEMO2: Okemah Hwy 56

Data processed at Wed May 22 2019 23:50


All information presented herein is the property of the government of the United States of America and may be revised or deleted at any time without prior notice.
Dissemination of this information without the expressed written consent of the Public Affairs Office, Tulsa District U.S. Army Corps of Engineers is strictly prohibited.
These data are gathered electronically and, as presented, have not undergone any form of quality control. These data are not guaranteed to be valid or correct.
Go to home page.
Go to station list.
Go to home page.

Upstream stations:

Downstream station:
Previous Day
Next Day
Current Day
    
SHEF ID:       OEMO2     Okemah Hwy 56
STATION TYPE:  

               PRECIP     STAGE  RIV-FLOW   VOLTAGE  BAT-LOAD
                   in        ft       cfs      volt      volt
              Ccp-Rev   Ccp-Rev   Ccp-Rev   Ccp-Rev   Ccp-Rev
(US/Central)
05/22 00:00      0.00     15.69      7094     12.73     12.65
05/22 01:00      0.00     15.78      7209     12.73     12.57
05/22 02:00      0.00     15.86      7311     12.65     12.57
05/22 03:00      0.00     15.88      7337     12.65     12.57
05/22 04:00      0.00     15.99      7480     12.65     12.57
05/22 05:00      0.00     15.94      7415     12.65     12.57
05/22 06:00      0.00     16.05      7558     12.65     12.49
05/22 07:00      0.00     16.15      7688     12.65     12.49
05/22 08:00      0.00     16.13      7662     12.73     12.57
05/22 09:00      0.00     16.23      7794     13.29     13.05
05/22 10:00      0.00     16.13      7662     13.53     13.29
05/22 11:00      0.00     16.22      7780     13.53     13.37
05/22 12:00      0.00     16.23      7794     13.68     13.29
05/22 13:00      0.00     16.36      7966     13.60     13.21
05/22 14:00      0.00     16.39      8006     13.53     13.21
05/22 15:00      0.00     16.47      8112     13.44     13.21
05/22 16:00      0.00     16.41      8032     13.92     13.13
05/22 17:00      0.36     16.53      8193     13.44     13.13
05/22 18:00      0.02     16.68      8395     13.21     13.05
05/22 19:00      0.00     16.81      8572     13.53     13.21
05/22 20:00      0.00     16.86      8640     13.05     12.97
05/22 21:00      0.00     16.90      8695     12.81     12.81
05/22 22:00      0.00     16.86      8640     12.73     12.65
05/22 23:00      0.00     16.85      8626     12.73     12.65